sensor_id;sensor_type;location;lat;lon;timestamp;P1;durP1;ratioP1;P2;durP2;ratioP2
63801;SDS011;49949;43.060;25.624;2022-07-10T00:00:09;13.77;;;11.48;;
63801;SDS011;49949;43.060;25.624;2022-07-10T00:02:37;12.52;;;9.63;;
63801;SDS011;49949;43.060;25.624;2022-07-10T00:05:03;14.05;;;9.43;;
63801;SDS011;49949;43.060;25.624;2022-07-10T00:07:30;14.27;;;10.70;;
63801;SDS011;49949;43.060;25.624;2022-07-10T00:09:56;14.55;;;9.80;;
63801;SDS011;49949;43.060;25.624;2022-07-10T00:12:22;16.85;;;11.00;;
63801;SDS011;49949;43.060;25.624;2022-07-10T00:14:47;14.43;;;11.00;;
63801;SDS011;49949;43.060;25.624;2022-07-10T00:17:13;12.95;;;10.45;;
63801;SDS011;49949;43.060;25.624;2022-07-10T00:19:39;16.65;;;11.50;;
63801;SDS011;49949;43.060;25.624;2022-07-10T00:22:05;19.67;;;10.35;;
63801;SDS011;49949;43.060;25.624;2022-07-10T00:24:31;13.52;;;11.30;;
63801;SDS011;49949;43.060;25.624;2022-07-10T00:26:57;14.73;;;10.68;;
63801;SDS011;49949;43.060;25.624;2022-07-10T00:29:22;15.23;;;10.85;;
63801;SDS011;49949;43.060;25.624;2022-07-10T00:31:48;15.75;;;11.30;;
63801;SDS011;49949;43.060;25.624;2022-07-10T00:34:14;13.02;;;10.88;;
63801;SDS011;49949;43.060;25.624;2022-07-10T00:36:40;13.43;;;10.05;;
63801;SDS011;49949;43.060;25.624;2022-07-10T00:39:05;13.05;;;11.38;;
63801;SDS011;49949;43.060;25.624;2022-07-10T00:41:31;16.35;;;11.38;;
63801;SDS011;49949;43.060;25.624;2022-07-10T00:43:58;14.75;;;11.50;;
63801;SDS011;49949;43.060;25.624;2022-07-10T00:46:25;22.38;;;12.27;;
63801;SDS011;49949;43.060;25.624;2022-07-10T00:48:52;16.25;;;12.82;;
63801;SDS011;49949;43.060;25.624;2022-07-10T00:51:19;20.02;;;12.85;;
63801;SDS011;49949;43.060;25.624;2022-07-10T00:53:47;17.42;;;11.93;;
63801;SDS011;49949;43.060;25.624;2022-07-10T00:56:17;14.98;;;12.85;;
63801;SDS011;49949;43.060;25.624;2022-07-10T00:58:48;13.93;;;10.80;;
63801;SDS011;49949;43.060;25.624;2022-07-10T01:01:14;12.18;;;11.07;;
63801;SDS011;49949;43.060;25.624;2022-07-10T01:03:41;16.02;;;12.38;;
63801;SDS011;49949;43.060;25.624;2022-07-10T01:06:08;17.15;;;11.88;;
63801;SDS011;49949;43.060;25.624;2022-07-10T01:08:34;13.60;;;11.90;;
63801;SDS011;49949;43.060;25.624;2022-07-10T01:11:00;17.00;;;11.32;;
63801;SDS011;49949;43.060;25.624;2022-07-10T01:13:26;18.08;;;10.73;;
63801;SDS011;49949;43.060;25.624;2022-07-10T01:15:52;21.70;;;11.80;;
63801;SDS011;49949;43.060;25.624;2022-07-10T01:18:18;14.05;;;12.07;;
63801;SDS011;49949;43.060;25.624;2022-07-10T01:20:44;14.75;;;13.05;;
63801;SDS011;49949;43.060;25.624;2022-07-10T01:23:10;14.48;;;12.50;;
63801;SDS011;49949;43.060;25.624;2022-07-10T01:25:35;16.88;;;11.02;;
63801;SDS011;49949;43.060;25.624;2022-07-10T01:28:01;16.40;;;11.48;;
63801;SDS011;49949;43.060;25.624;2022-07-10T01:30:27;15.82;;;12.00;;
63801;SDS011;49949;43.060;25.624;2022-07-10T01:32:53;18.17;;;11.90;;
63801;SDS011;49949;43.060;25.624;2022-07-10T01:35:18;14.95;;;11.70;;
63801;SDS011;49949;43.060;25.624;2022-07-10T01:37:44;14.65;;;11.32;;
63801;SDS011;49949;43.060;25.624;2022-07-10T01:40:10;12.73;;;10.75;;
63801;SDS011;49949;43.060;25.624;2022-07-10T01:42:36;19.17;;;12.43;;
63801;SDS011;49949;43.060;25.624;2022-07-10T01:45:03;13.85;;;11.75;;
63801;SDS011;49949;43.060;25.624;2022-07-10T01:47:33;16.95;;;12.68;;
63801;SDS011;49949;43.060;25.624;2022-07-10T01:49:59;16.17;;;12.32;;
63801;SDS011;49949;43.060;25.624;2022-07-10T01:52:24;17.98;;;14.55;;
63801;SDS011;49949;43.060;25.624;2022-07-10T01:54:50;19.67;;;13.85;;
63801;SDS011;49949;43.060;25.624;2022-07-10T01:57:16;21.00;;;12.45;;
63801;SDS011;49949;43.060;25.624;2022-07-10T01:59:42;18.48;;;12.98;;
63801;SDS011;49949;43.060;25.624;2022-07-10T02:02:08;15.77;;;13.85;;
63801;SDS011;49949;43.060;25.624;2022-07-10T02:04:34;16.98;;;13.45;;
63801;SDS011;49949;43.060;25.624;2022-07-10T02:07:09;18.77;;;12.77;;
63801;SDS011;49949;43.060;25.624;2022-07-10T02:09:40;16.30;;;11.88;;
63801;SDS011;49949;43.060;25.624;2022-07-10T02:12:10;16.63;;;12.85;;
63801;SDS011;49949;43.060;25.624;2022-07-10T02:14:39;15.85;;;12.50;;
63801;SDS011;49949;43.060;25.624;2022-07-10T02:17:06;14.80;;;13.25;;
63801;SDS011;49949;43.060;25.624;2022-07-10T02:19:32;14.68;;;12.48;;
63801;SDS011;49949;43.060;25.624;2022-07-10T02:21:58;17.67;;;12.30;;
63801;SDS011;49949;43.060;25.624;2022-07-10T02:24:24;18.02;;;12.77;;
63801;SDS011;49949;43.060;25.624;2022-07-10T02:26:50;23.33;;;12.93;;
63801;SDS011;49949;43.060;25.624;2022-07-10T02:29:16;20.83;;;13.40;;
63801;SDS011;49949;43.060;25.624;2022-07-10T02:31:42;16.30;;;13.32;;
63801;SDS011;49949;43.060;25.624;2022-07-10T02:34:09;13.93;;;12.02;;
63801;SDS011;49949;43.060;25.624;2022-07-10T02:36:36;18.15;;;11.57;;
63801;SDS011;49949;43.060;25.624;2022-07-10T02:39:03;15.65;;;13.02;;
63801;SDS011;49949;43.060;25.624;2022-07-10T02:41:30;15.30;;;13.30;;
63801;SDS011;49949;43.060;25.624;2022-07-10T02:43:56;15.50;;;13.50;;
63801;SDS011;49949;43.060;25.624;2022-07-10T02:46:22;16.45;;;13.40;;
63801;SDS011;49949;43.060;25.624;2022-07-10T02:48:47;17.42;;;12.65;;
63801;SDS011;49949;43.060;25.624;2022-07-10T02:51:13;16.95;;;13.00;;
63801;SDS011;49949;43.060;25.624;2022-07-10T02:53:39;18.42;;;13.55;;
63801;SDS011;49949;43.060;25.624;2022-07-10T02:56:05;15.85;;;13.35;;
63801;SDS011;49949;43.060;25.624;2022-07-10T02:58:31;20.35;;;12.48;;
63801;SDS011;49949;43.060;25.624;2022-07-10T03:00:57;21.40;;;14.70;;
63801;SDS011;49949;43.060;25.624;2022-07-10T03:03:23;17.17;;;12.20;;
63801;SDS011;49949;43.060;25.624;2022-07-10T03:05:49;14.90;;;11.55;;
63801;SDS011;49949;43.060;25.624;2022-07-10T03:08:15;19.13;;;12.25;;
63801;SDS011;49949;43.060;25.624;2022-07-10T03:10:40;15.63;;;11.75;;
63801;SDS011;49949;43.060;25.624;2022-07-10T03:13:06;14.20;;;11.88;;
63801;SDS011;49949;43.060;25.624;2022-07-10T03:15:32;14.38;;;12.88;;
63801;SDS011;49949;43.060;25.624;2022-07-10T03:17:58;15.27;;;12.10;;
63801;SDS011;49949;43.060;25.624;2022-07-10T03:20:24;14.52;;;12.68;;
63801;SDS011;49949;43.060;25.624;2022-07-10T03:22:49;15.85;;;12.15;;
63801;SDS011;49949;43.060;25.624;2022-07-10T03:25:15;17.80;;;13.05;;
63801;SDS011;49949;43.060;25.624;2022-07-10T03:27:41;14.48;;;12.70;;
63801;SDS011;49949;43.060;25.624;2022-07-10T03:30:07;15.23;;;13.60;;
63801;SDS011;49949;43.060;25.624;2022-07-10T03:32:33;19.00;;;13.20;;
63801;SDS011;49949;43.060;25.624;2022-07-10T03:34:59;17.02;;;13.95;;
63801;SDS011;49949;43.060;25.624;2022-07-10T03:37:25;20.73;;;14.55;;
63801;SDS011;49949;43.060;25.624;2022-07-10T03:39:50;25.40;;;15.93;;
63801;SDS011;49949;43.060;25.624;2022-07-10T03:42:16;20.50;;;16.05;;
63801;SDS011;49949;43.060;25.624;2022-07-10T03:44:42;18.55;;;15.82;;
63801;SDS011;49949;43.060;25.624;2022-07-10T03:47:08;20.65;;;16.05;;
63801;SDS011;49949;43.060;25.624;2022-07-10T03:49:34;17.15;;;13.60;;
63801;SDS011;49949;43.060;25.624;2022-07-10T03:52:00;20.15;;;13.25;;
63801;SDS011;49949;43.060;25.624;2022-07-10T03:54:27;18.30;;;12.20;;
63801;SDS011;49949;43.060;25.624;2022-07-10T03:56:54;17.15;;;11.35;;
63801;SDS011;49949;43.060;25.624;2022-07-10T03:59:39;12.43;;;11.13;;
63801;SDS011;49949;43.060;25.624;2022-07-10T04:02:04;18.77;;;11.13;;
63801;SDS011;49949;43.060;25.624;2022-07-10T04:04:30;14.20;;;10.75;;
63801;SDS011;49949;43.060;25.624;2022-07-10T04:06:56;12.93;;;10.57;;
63801;SDS011;49949;43.060;25.624;2022-07-10T04:09:21;13.68;;;10.85;;
63801;SDS011;49949;43.060;25.624;2022-07-10T04:11:47;12.98;;;10.55;;
63801;SDS011;49949;43.060;25.624;2022-07-10T04:14:13;12.32;;;10.07;;
63801;SDS011;49949;43.060;25.624;2022-07-10T04:16:39;13.23;;;10.07;;
63801;SDS011;49949;43.060;25.624;2022-07-10T04:19:04;13.65;;;9.05;;
63801;SDS011;49949;43.060;25.624;2022-07-10T04:21:30;13.13;;;8.88;;
63801;SDS011;49949;43.060;25.624;2022-07-10T04:23:56;10.27;;;8.40;;
63801;SDS011;49949;43.060;25.624;2022-07-10T04:26:21;9.68;;;8.35;;
63801;SDS011;49949;43.060;25.624;2022-07-10T04:28:47;10.80;;;7.85;;
63801;SDS011;49949;43.060;25.624;2022-07-10T04:31:13;13.98;;;8.45;;
63801;SDS011;49949;43.060;25.624;2022-07-10T04:33:38;9.35;;;7.72;;
63801;SDS011;49949;43.060;25.624;2022-07-10T04:36:04;11.00;;;8.18;;
63801;SDS011;49949;43.060;25.624;2022-07-10T04:38:30;9.70;;;8.55;;
63801;SDS011;49949;43.060;25.624;2022-07-10T04:40:57;9.20;;;7.50;;
63801;SDS011;49949;43.060;25.624;2022-07-10T04:43:22;12.45;;;8.15;;
63801;SDS011;49949;43.060;25.624;2022-07-10T04:45:48;19.55;;;8.88;;
63801;SDS011;49949;43.060;25.624;2022-07-10T04:48:14;13.98;;;8.80;;
63801;SDS011;49949;43.060;25.624;2022-07-10T04:50:40;16.40;;;9.13;;
63801;SDS011;49949;43.060;25.624;2022-07-10T04:53:05;18.30;;;9.55;;
63801;SDS011;49949;43.060;25.624;2022-07-10T04:55:31;11.23;;;9.20;;
63801;SDS011;49949;43.060;25.624;2022-07-10T04:57:57;13.27;;;9.52;;
63801;SDS011;49949;43.060;25.624;2022-07-10T05:00:23;14.70;;;9.05;;
63801;SDS011;49949;43.060;25.624;2022-07-10T05:02:49;13.23;;;8.98;;
63801;SDS011;49949;43.060;25.624;2022-07-10T05:05:15;15.40;;;8.70;;
63801;SDS011;49949;43.060;25.624;2022-07-10T05:07:40;15.93;;;9.02;;
63801;SDS011;49949;43.060;25.624;2022-07-10T05:10:06;23.95;;;9.13;;
63801;SDS011;49949;43.060;25.624;2022-07-10T05:12:33;12.88;;;8.77;;
63801;SDS011;49949;43.060;25.624;2022-07-10T05:14:58;19.85;;;10.98;;
63801;SDS011;49949;43.060;25.624;2022-07-10T05:17:25;18.30;;;9.52;;
63801;SDS011;49949;43.060;25.624;2022-07-10T05:19:53;9.95;;;8.35;;
63801;SDS011;49949;43.060;25.624;2022-07-10T05:22:20;17.95;;;8.98;;
63801;SDS011;49949;43.060;25.624;2022-07-10T05:24:47;24.13;;;10.75;;
63801;SDS011;49949;43.060;25.624;2022-07-10T05:27:13;29.05;;;10.52;;
63801;SDS011;49949;43.060;25.624;2022-07-10T05:29:38;29.05;;;11.27;;
63801;SDS011;49949;43.060;25.624;2022-07-10T05:32:04;22.42;;;8.30;;
63801;SDS011;49949;43.060;25.624;2022-07-10T05:34:30;18.33;;;8.80;;
63801;SDS011;49949;43.060;25.624;2022-07-10T05:36:56;16.73;;;8.68;;
63801;SDS011;49949;43.060;25.624;2022-07-10T05:39:21;13.13;;;5.72;;
63801;SDS011;49949;43.060;25.624;2022-07-10T05:41:51;7.78;;;4.97;;
63801;SDS011;49949;43.060;25.624;2022-07-10T05:44:17;7.53;;;4.95;;
63801;SDS011;49949;43.060;25.624;2022-07-10T05:46:45;9.63;;;3.88;;
63801;SDS011;49949;43.060;25.624;2022-07-10T05:49:11;4.47;;;3.40;;
63801;SDS011;49949;43.060;25.624;2022-07-10T05:51:37;12.55;;;3.78;;
63801;SDS011;49949;43.060;25.624;2022-07-10T05:54:03;10.18;;;5.03;;
63801;SDS011;49949;43.060;25.624;2022-07-10T05:56:29;8.60;;;3.53;;
63801;SDS011;49949;43.060;25.624;2022-07-10T05:58:54;10.60;;;7.05;;
63801;SDS011;49949;43.060;25.624;2022-07-10T06:01:21;19.52;;;4.25;;
63801;SDS011;49949;43.060;25.624;2022-07-10T06:03:47;16.00;;;4.63;;
63801;SDS011;49949;43.060;25.624;2022-07-10T06:06:12;11.43;;;4.97;;
63801;SDS011;49949;43.060;25.624;2022-07-10T06:08:42;14.80;;;4.57;;
63801;SDS011;49949;43.060;25.624;2022-07-10T06:11:09;25.83;;;4.90;;
63801;SDS011;49949;43.060;25.624;2022-07-10T06:13:35;20.60;;;3.63;;
63801;SDS011;49949;43.060;25.624;2022-07-10T06:16:01;11.90;;;3.40;;
63801;SDS011;49949;43.060;25.624;2022-07-10T06:18:29;7.22;;;3.17;;
63801;SDS011;49949;43.060;25.624;2022-07-10T06:20:54;8.13;;;3.20;;
63801;SDS011;49949;43.060;25.624;2022-07-10T06:23:20;9.93;;;3.55;;
63801;SDS011;49949;43.060;25.624;2022-07-10T06:25:46;18.08;;;3.70;;
63801;SDS011;49949;43.060;25.624;2022-07-10T06:28:14;5.53;;;3.58;;
63801;SDS011;49949;43.060;25.624;2022-07-10T06:30:39;7.20;;;3.15;;
63801;SDS011;49949;43.060;25.624;2022-07-10T06:33:05;3.30;;;2.90;;
63801;SDS011;49949;43.060;25.624;2022-07-10T06:35:31;6.57;;;2.90;;
63801;SDS011;49949;43.060;25.624;2022-07-10T06:37:56;7.60;;;3.15;;
63801;SDS011;49949;43.060;25.624;2022-07-10T06:40:22;3.88;;;2.50;;
63801;SDS011;49949;43.060;25.624;2022-07-10T06:42:48;2.80;;;2.53;;
63801;SDS011;49949;43.060;25.624;2022-07-10T06:45:14;2.25;;;2.15;;
63801;SDS011;49949;43.060;25.624;2022-07-10T06:47:39;7.70;;;2.70;;
63801;SDS011;49949;43.060;25.624;2022-07-10T06:50:20;2.50;;;2.28;;
63801;SDS011;49949;43.060;25.624;2022-07-10T06:52:47;4.13;;;2.30;;
63801;SDS011;49949;43.060;25.624;2022-07-10T06:55:13;7.35;;;2.60;;
63801;SDS011;49949;43.060;25.624;2022-07-10T06:57:39;5.53;;;2.58;;
63801;SDS011;49949;43.060;25.624;2022-07-10T07:00:05;2.00;;;1.90;;
63801;SDS011;49949;43.060;25.624;2022-07-10T07:02:32;3.38;;;2.50;;
63801;SDS011;49949;43.060;25.624;2022-07-10T07:04:58;10.40;;;2.80;;
63801;SDS011;49949;43.060;25.624;2022-07-10T07:07:23;6.95;;;2.35;;
63801;SDS011;49949;43.060;25.624;2022-07-10T07:09:49;6.40;;;2.60;;
63801;SDS011;49949;43.060;25.624;2022-07-10T07:12:15;3.25;;;2.60;;
63801;SDS011;49949;43.060;25.624;2022-07-10T07:14:42;8.75;;;2.78;;
63801;SDS011;49949;43.060;25.624;2022-07-10T07:17:08;10.80;;;4.03;;
63801;SDS011;49949;43.060;25.624;2022-07-10T07:19:36;5.53;;;3.22;;
63801;SDS011;49949;43.060;25.624;2022-07-10T07:22:21;3.50;;;3.17;;
63801;SDS011;49949;43.060;25.624;2022-07-10T07:25:07;3.95;;;2.88;;
63801;SDS011;49949;43.060;25.624;2022-07-10T07:27:35;8.40;;;2.80;;
63801;SDS011;49949;43.060;25.624;2022-07-10T07:30:05;2.75;;;2.53;;
63801;SDS011;49949;43.060;25.624;2022-07-10T07:32:32;2.28;;;2.08;;
63801;SDS011;49949;43.060;25.624;2022-07-10T07:34:59;2.67;;;2.22;;
63801;SDS011;49949;43.060;25.624;2022-07-10T07:37:38;6.03;;;2.65;;
63801;SDS011;49949;43.060;25.624;2022-07-10T07:40:05;3.33;;;2.13;;
63801;SDS011;49949;43.060;25.624;2022-07-10T07:42:32;12.80;;;2.78;;
63801;SDS011;49949;43.060;25.624;2022-07-10T07:44:58;3.70;;;2.08;;
63801;SDS011;49949;43.060;25.624;2022-07-10T07:47:24;4.45;;;2.25;;
63801;SDS011;49949;43.060;25.624;2022-07-10T07:49:50;8.30;;;2.58;;
63801;SDS011;49949;43.060;25.624;2022-07-10T07:52:15;4.10;;;2.50;;
63801;SDS011;49949;43.060;25.624;2022-07-10T07:54:41;29.95;;;3.85;;
63801;SDS011;49949;43.060;25.624;2022-07-10T07:57:07;19.75;;;3.35;;
63801;SDS011;49949;43.060;25.624;2022-07-10T07:59:33;20.02;;;4.97;;
63801;SDS011;49949;43.060;25.624;2022-07-10T08:01:58;15.00;;;3.95;;
63801;SDS011;49949;43.060;25.624;2022-07-10T08:04:24;6.03;;;2.80;;
63801;SDS011;49949;43.060;25.624;2022-07-10T08:06:50;6.20;;;3.45;;
63801;SDS011;49949;43.060;25.624;2022-07-10T08:09:20;5.95;;;4.20;;
63801;SDS011;49949;43.060;25.624;2022-07-10T08:11:45;3.60;;;2.63;;
63801;SDS011;49949;43.060;25.624;2022-07-10T08:14:12;5.15;;;2.70;;
63801;SDS011;49949;43.060;25.624;2022-07-10T08:16:39;3.25;;;2.50;;
63801;SDS011;49949;43.060;25.624;2022-07-10T08:19:05;14.77;;;3.75;;
63801;SDS011;49949;43.060;25.624;2022-07-10T08:21:31;15.55;;;3.80;;
63801;SDS011;49949;43.060;25.624;2022-07-10T08:23:57;12.40;;;4.13;;
63801;SDS011;49949;43.060;25.624;2022-07-10T08:26:23;6.15;;;2.78;;
63801;SDS011;49949;43.060;25.624;2022-07-10T08:28:49;5.30;;;3.30;;
63801;SDS011;49949;43.060;25.624;2022-07-10T08:31:15;6.82;;;3.28;;
63801;SDS011;49949;43.060;25.624;2022-07-10T08:33:41;2.33;;;2.20;;
63801;SDS011;49949;43.060;25.624;2022-07-10T08:36:07;4.95;;;2.60;;
63801;SDS011;49949;43.060;25.624;2022-07-10T08:38:32;47.45;;;4.35;;
63801;SDS011;49949;43.060;25.624;2022-07-10T08:40:58;8.68;;;2.90;;
63801;SDS011;49949;43.060;25.624;2022-07-10T08:43:27;8.48;;;2.38;;
63801;SDS011;49949;43.060;25.624;2022-07-10T08:45:53;6.22;;;3.50;;
63801;SDS011;49949;43.060;25.624;2022-07-10T08:48:23;5.40;;;2.42;;
63801;SDS011;49949;43.060;25.624;2022-07-10T08:50:52;4.32;;;2.30;;
63801;SDS011;49949;43.060;25.624;2022-07-10T08:55:47;5.43;;;2.42;;
63801;SDS011;49949;43.060;25.624;2022-07-10T08:58:12;10.48;;;2.80;;
63801;SDS011;49949;43.060;25.624;2022-07-10T09:00:39;10.60;;;2.85;;
63801;SDS011;49949;43.060;25.624;2022-07-10T09:03:06;7.60;;;2.78;;
63801;SDS011;49949;43.060;25.624;2022-07-10T09:05:33;42.75;;;5.15;;
63801;SDS011;49949;43.060;25.624;2022-07-10T09:08:00;18.05;;;5.70;;
63801;SDS011;49949;43.060;25.624;2022-07-10T09:10:26;46.97;;;16.00;;
63801;SDS011;49949;43.060;25.624;2022-07-10T09:15:21;19.98;;;3.95;;
63801;SDS011;49949;43.060;25.624;2022-07-10T09:17:52;18.55;;;3.65;;
63801;SDS011;49949;43.060;25.624;2022-07-10T09:20:31;8.25;;;2.70;;
63801;SDS011;49949;43.060;25.624;2022-07-10T09:22:59;10.82;;;3.20;;
63801;SDS011;49949;43.060;25.624;2022-07-10T09:25:47;37.42;;;3.75;;
63801;SDS011;49949;43.060;25.624;2022-07-10T09:28:18;19.85;;;3.58;;
63801;SDS011;49949;43.060;25.624;2022-07-10T09:30:46;24.88;;;3.72;;
63801;SDS011;49949;43.060;25.624;2022-07-10T09:33:16;50.85;;;4.95;;
63801;SDS011;49949;43.060;25.624;2022-07-10T09:41:12;40.30;;;7.75;;
63801;SDS011;49949;43.060;25.624;2022-07-10T09:46:11;28.48;;;7.97;;
63801;SDS011;49949;43.060;25.624;2022-07-10T09:48:36;17.95;;;5.97;;
63801;SDS011;49949;43.060;25.624;2022-07-10T09:51:03;19.40;;;3.88;;
63801;SDS011;49949;43.060;25.624;2022-07-10T09:53:38;54.78;;;8.50;;
63801;SDS011;49949;43.060;25.624;2022-07-10T09:56:09;48.97;;;4.43;;
63801;SDS011;49949;43.060;25.624;2022-07-10T09:58:36;19.05;;;2.50;;
63801;SDS011;49949;43.060;25.624;2022-07-10T10:01:03;13.48;;;3.58;;
63801;SDS011;49949;43.060;25.624;2022-07-10T10:03:39;10.18;;;2.83;;
63801;SDS011;49949;43.060;25.624;2022-07-10T10:08:48;14.50;;;3.95;;
63801;SDS011;49949;43.060;25.624;2022-07-10T10:11:21;16.10;;;2.80;;
63801;SDS011;49949;43.060;25.624;2022-07-10T10:13:51;133.00;;;8.43;;
63801;SDS011;49949;43.060;25.624;2022-07-10T10:16:18;22.90;;;3.80;;
63801;SDS011;49949;43.060;25.624;2022-07-10T10:18:45;18.30;;;4.75;;
63801;SDS011;49949;43.060;25.624;2022-07-10T10:21:30;3.95;;;2.30;;
63801;SDS011;49949;43.060;25.624;2022-07-10T10:23:57;16.63;;;2.65;;
63801;SDS011;49949;43.060;25.624;2022-07-10T10:26:25;10.38;;;3.35;;
63801;SDS011;49949;43.060;25.624;2022-07-10T10:28:52;12.20;;;2.30;;
63801;SDS011;49949;43.060;25.624;2022-07-10T10:31:22;34.08;;;4.50;;
63801;SDS011;49949;43.060;25.624;2022-07-10T10:33:49;53.67;;;6.60;;
63801;SDS011;49949;43.060;25.624;2022-07-10T10:37:02;12.13;;;3.17;;
63801;SDS011;49949;43.060;25.624;2022-07-10T10:41:51;30.58;;;9.35;;
63801;SDS011;49949;43.060;25.624;2022-07-10T10:49:15;20.83;;;7.20;;
63801;SDS011;49949;43.060;25.624;2022-07-10T10:51:59;13.68;;;5.00;;
63801;SDS011;49949;43.060;25.624;2022-07-10T10:54:28;16.05;;;5.40;;
63801;SDS011;49949;43.060;25.624;2022-07-10T10:57:17;6.55;;;2.60;;
63801;SDS011;49949;43.060;25.624;2022-07-10T10:59:46;18.98;;;5.40;;
63801;SDS011;49949;43.060;25.624;2022-07-10T11:02:22;18.40;;;3.22;;
63801;SDS011;49949;43.060;25.624;2022-07-10T11:04:51;10.63;;;2.97;;
63801;SDS011;49949;43.060;25.624;2022-07-10T11:10:29;10.48;;;3.42;;
63801;SDS011;49949;43.060;25.624;2022-07-10T11:13:09;18.88;;;4.68;;
63801;SDS011;49949;43.060;25.624;2022-07-10T11:15:40;15.27;;;7.40;;
63801;SDS011;49949;43.060;25.624;2022-07-10T11:18:20;23.93;;;5.47;;
63801;SDS011;49949;43.060;25.624;2022-07-10T11:20:54;20.05;;;5.95;;
63801;SDS011;49949;43.060;25.624;2022-07-10T11:26:20;38.95;;;4.28;;
63801;SDS011;49949;43.060;25.624;2022-07-10T11:29:00;15.27;;;4.80;;
63801;SDS011;49949;43.060;25.624;2022-07-10T11:31:28;7.43;;;2.67;;
63801;SDS011;49949;43.060;25.624;2022-07-10T11:33:56;2.97;;;2.53;;
63801;SDS011;49949;43.060;25.624;2022-07-10T11:36:25;16.98;;;4.90;;
63801;SDS011;49949;43.060;25.624;2022-07-10T11:39:01;8.40;;;3.47;;
63801;SDS011;49949;43.060;25.624;2022-07-10T11:41:43;10.25;;;3.95;;
63801;SDS011;49949;43.060;25.624;2022-07-10T11:44:17;6.65;;;3.60;;
63801;SDS011;49949;43.060;25.624;2022-07-10T11:46:46;5.07;;;2.85;;
63801;SDS011;49949;43.060;25.624;2022-07-10T11:49:14;4.75;;;2.65;;
63801;SDS011;49949;43.060;25.624;2022-07-10T11:51:42;18.52;;;3.00;;
63801;SDS011;49949;43.060;25.624;2022-07-10T11:54:13;5.05;;;3.42;;
63801;SDS011;49949;43.060;25.624;2022-07-10T11:56:42;25.55;;;3.95;;
63801;SDS011;49949;43.060;25.624;2022-07-10T11:59:15;9.73;;;3.35;;
63801;SDS011;49949;43.060;25.624;2022-07-10T12:01:45;7.60;;;3.28;;
63801;SDS011;49949;43.060;25.624;2022-07-10T12:04:11;12.18;;;3.72;;
63801;SDS011;49949;43.060;25.624;2022-07-10T12:06:39;6.38;;;3.38;;
63801;SDS011;49949;43.060;25.624;2022-07-10T12:09:13;20.17;;;5.05;;
63801;SDS011;49949;43.060;25.624;2022-07-10T12:11:39;28.35;;;4.47;;
63801;SDS011;49949;43.060;25.624;2022-07-10T12:14:16;14.88;;;9.02;;
63801;SDS011;49949;43.060;25.624;2022-07-10T12:16:46;36.30;;;4.75;;
63801;SDS011;49949;43.060;25.624;2022-07-10T12:19:17;21.15;;;5.05;;
63801;SDS011;49949;43.060;25.624;2022-07-10T12:21:45;22.10;;;3.75;;
63801;SDS011;49949;43.060;25.624;2022-07-10T12:24:12;27.20;;;7.32;;
63801;SDS011;49949;43.060;25.624;2022-07-10T12:26:39;70.10;;;9.15;;
63801;SDS011;49949;43.060;25.624;2022-07-10T12:31:50;38.35;;;9.43;;
63801;SDS011;49949;43.060;25.624;2022-07-10T12:34:20;32.17;;;10.52;;
63801;SDS011;49949;43.060;25.624;2022-07-10T12:37:11;11.25;;;5.50;;
63801;SDS011;49949;43.060;25.624;2022-07-10T12:39:48;14.30;;;3.88;;
63801;SDS011;49949;43.060;25.624;2022-07-10T12:42:24;15.63;;;6.40;;
63801;SDS011;49949;43.060;25.624;2022-07-10T12:44:51;27.73;;;8.43;;
63801;SDS011;49949;43.060;25.624;2022-07-10T12:47:17;11.00;;;2.97;;
63801;SDS011;49949;43.060;25.624;2022-07-10T12:49:58;9.50;;;2.75;;
63801;SDS011;49949;43.060;25.624;2022-07-10T12:52:35;17.95;;;2.97;;
63801;SDS011;49949;43.060;25.624;2022-07-10T12:55:18;3.78;;;3.22;;
63801;SDS011;49949;43.060;25.624;2022-07-10T12:57:54;16.08;;;2.72;;
63801;SDS011;49949;43.060;25.624;2022-07-10T13:00:25;66.50;;;6.63;;
63801;SDS011;49949;43.060;25.624;2022-07-10T13:05:34;14.27;;;3.22;;
63801;SDS011;49949;43.060;25.624;2022-07-10T13:10:46;6.13;;;3.70;;
63801;SDS011;49949;43.060;25.624;2022-07-10T13:13:14;3.10;;;2.80;;
63801;SDS011;49949;43.060;25.624;2022-07-10T13:15:40;4.72;;;2.70;;
63801;SDS011;49949;43.060;25.624;2022-07-10T13:18:14;11.85;;;3.15;;
63801;SDS011;49949;43.060;25.624;2022-07-10T13:20:48;59.25;;;4.30;;
63801;SDS011;49949;43.060;25.624;2022-07-10T13:23:15;3.78;;;2.15;;
63801;SDS011;49949;43.060;25.624;2022-07-10T13:25:44;7.03;;;2.35;;
63801;SDS011;49949;43.060;25.624;2022-07-10T13:28:10;9.27;;;2.25;;
63801;SDS011;49949;43.060;25.624;2022-07-10T13:30:39;12.35;;;3.05;;
63801;SDS011;49949;43.060;25.624;2022-07-10T13:33:04;5.03;;;2.38;;
63801;SDS011;49949;43.060;25.624;2022-07-10T13:35:32;7.13;;;2.63;;
63801;SDS011;49949;43.060;25.624;2022-07-10T13:37:59;2.30;;;2.20;;
63801;SDS011;49949;43.060;25.624;2022-07-10T13:40:29;8.48;;;2.90;;
63801;SDS011;49949;43.060;25.624;2022-07-10T13:42:56;2.28;;;2.10;;
63801;SDS011;49949;43.060;25.624;2022-07-10T13:45:23;5.47;;;2.15;;
63801;SDS011;49949;43.060;25.624;2022-07-10T13:47:55;2.70;;;2.50;;
63801;SDS011;49949;43.060;25.624;2022-07-10T13:50:21;4.15;;;2.10;;
63801;SDS011;49949;43.060;25.624;2022-07-10T13:52:48;11.57;;;2.90;;
63801;SDS011;49949;43.060;25.624;2022-07-10T13:55:14;36.50;;;3.30;;
63801;SDS011;49949;43.060;25.624;2022-07-10T13:57:40;8.55;;;2.40;;
63801;SDS011;49949;43.060;25.624;2022-07-10T14:00:06;2.47;;;2.08;;
63801;SDS011;49949;43.060;25.624;2022-07-10T14:02:32;2.03;;;1.83;;
63801;SDS011;49949;43.060;25.624;2022-07-10T14:04:58;2.90;;;1.90;;
63801;SDS011;49949;43.060;25.624;2022-07-10T14:07:24;4.07;;;1.98;;
63801;SDS011;49949;43.060;25.624;2022-07-10T14:09:50;4.10;;;2.10;;
63801;SDS011;49949;43.060;25.624;2022-07-10T14:12:15;3.63;;;2.35;;
63801;SDS011;49949;43.060;25.624;2022-07-10T14:14:41;2.10;;;2.00;;
63801;SDS011;49949;43.060;25.624;2022-07-10T14:17:07;9.00;;;3.10;;
63801;SDS011;49949;43.060;25.624;2022-07-10T14:19:33;2.10;;;2.00;;
63801;SDS011;49949;43.060;25.624;2022-07-10T14:21:59;2.83;;;2.50;;
63801;SDS011;49949;43.060;25.624;2022-07-10T14:24:24;4.40;;;2.00;;
63801;SDS011;49949;43.060;25.624;2022-07-10T14:26:50;5.80;;;2.38;;
63801;SDS011;49949;43.060;25.624;2022-07-10T14:29:18;7.38;;;2.17;;
63801;SDS011;49949;43.060;25.624;2022-07-10T14:31:44;2.45;;;2.25;;
63801;SDS011;49949;43.060;25.624;2022-07-10T14:34:13;3.72;;;2.40;;
63801;SDS011;49949;43.060;25.624;2022-07-10T14:36:38;5.57;;;2.40;;
63801;SDS011;49949;43.060;25.624;2022-07-10T14:39:04;2.70;;;2.10;;
63801;SDS011;49949;43.060;25.624;2022-07-10T14:41:30;4.55;;;2.20;;
63801;SDS011;49949;43.060;25.624;2022-07-10T14:43:56;4.75;;;2.47;;
63801;SDS011;49949;43.060;25.624;2022-07-10T14:46:21;3.25;;;2.22;;
63801;SDS011;49949;43.060;25.624;2022-07-10T14:48:47;4.25;;;2.65;;
63801;SDS011;49949;43.060;25.624;2022-07-10T14:51:13;5.00;;;2.58;;
63801;SDS011;49949;43.060;25.624;2022-07-10T14:53:39;4.10;;;2.30;;
63801;SDS011;49949;43.060;25.624;2022-07-10T14:56:06;2.10;;;1.90;;
63801;SDS011;49949;43.060;25.624;2022-07-10T14:58:33;6.55;;;2.17;;
63801;SDS011;49949;43.060;25.624;2022-07-10T15:00:59;2.47;;;2.17;;